Current Weather

Ali Al Salem Ab

Ali Al Salem Ab, Kuwait (OKAS)

Report from: Monday, July 22, 2024 10:17 AM UTC
Current time: Monday, July 22, 2024 10:32 AM UTC

Nearby weather – Weather history – Daily summaries
Weather forecast

Temperature47.0°C (116.6°F)
Heat index42.2°C (107.9°F)
Dew point0.0°C (32.0°F)
Winds 13 kts (6.7 m/s, 15 mph) West (270°)
Wind gusts 21 kts (10.8 m/s, 24.2 mph)
Visibility6.2 mi. (10 km)
Clouds Few clouds 26,000 ft. (7,925 m)
Altimeter29.46 in.Hg (998 mB)
Relative humidity6 %
Density altitude4,188 ft. (1,277 m)
Sea-level pressure99.7 kPa (997 mB, 29.44 in.Hg)
Remarks Fully automated report
System requires maintenance
Special weather observation
Automated weather observing station with precipitation discriminator
Flight conditions Visual Meteorological Conditions
Raw dataSPECI OKAS 221017Z AUTO 27013G21KT 9999 FEW260 47/00 A2946 RMK AO2 WSHFT 12 SLP969 $
An error has occurred. This application may no longer respond until reloaded. Reload 🗙